createdAt,value
2019-05-17T00:00:23.233Z,92.72
2019-05-17T00:02:57.150Z,86.82
2019-05-17T00:05:27.353Z,89.17
2019-05-17T00:07:59.231Z,90.50
2019-05-17T00:10:29.648Z,99.40
2019-05-17T00:13:01.628Z,108.00
2019-05-17T00:15:32.001Z,96.17
2019-05-17T00:18:02.434Z,88.58
2019-05-17T00:20:34.288Z,93.20
2019-05-17T00:23:07.110Z,98.07
2019-05-17T00:25:37.766Z,102.58
2019-05-17T00:28:08.180Z,101.07
2019-05-17T00:30:38.633Z,96.78
2019-05-17T00:33:09.288Z,95.97
2019-05-17T00:35:39.666Z,107.37
2019-05-17T00:38:11.643Z,95.17
2019-05-17T00:40:42.038Z,98.25
2019-05-17T00:43:12.445Z,94.58
2019-05-17T00:45:42.817Z,105.12
2019-05-17T00:48:13.372Z,105.27
2019-05-17T00:50:43.777Z,103.12
2019-05-17T00:53:16.266Z,89.52
2019-05-17T00:55:46.701Z,94.70
2019-05-17T00:58:18.707Z,103.10
2019-05-17T01:00:49.196Z,100.02
2019-05-17T01:03:21.084Z,88.82
2019-05-17T01:05:51.551Z,96.67
2019-05-17T01:08:22.026Z,99.05
2019-05-17T01:10:54.002Z,99.05
2019-05-17T01:13:26.558Z,97.33
2019-05-17T01:15:56.761Z,102.07
2019-05-17T01:18:27.516Z,92.88
2019-05-17T01:20:57.985Z,99.67
2019-05-17T01:23:29.228Z,91.22
2019-05-17T01:25:59.645Z,87.85
2019-05-17T01:28:30.100Z,93.75
2019-05-17T01:31:00.471Z,91.53
2019-05-17T01:33:30.998Z,100.18
2019-05-17T01:36:01.381Z,95.53
2019-05-17T01:38:31.870Z,98.72
2019-05-17T01:41:02.335Z,93.92
2019-05-17T01:43:32.872Z,105.78
2019-05-17T01:46:03.378Z,102.00
2019-05-17T01:48:33.788Z,102.55
2019-05-17T01:51:04.176Z,100.53
2019-05-17T01:53:36.460Z,124.05
2019-05-17T01:56:08.153Z,138.88
2019-05-17T01:58:38.578Z,126.60
2019-05-17T02:01:08.966Z,123.75
2019-05-17T02:03:39.369Z,115.70
2019-05-17T02:06:09.834Z,135.10
2019-05-17T02:08:40.323Z,110.48
2019-05-17T02:11:10.785Z,118.10
2019-05-17T02:13:41.191Z,106.65
2019-05-17T02:16:11.823Z,118.77
2019-05-17T02:18:43.806Z,105.07
2019-05-17T02:21:16.671Z,111.12
2019-05-17T02:23:46.944Z,111.37
2019-05-17T02:26:18.952Z,102.50
2019-05-17T02:28:49.467Z,128.02
2019-05-17T02:31:20.678Z,117.65
2019-05-17T02:33:53.477Z,109.52
2019-05-17T02:36:23.505Z,101.92
2019-05-17T02:38:54.006Z,100.07
2019-05-17T02:41:24.518Z,108.32
2019-05-17T02:43:54.989Z,94.72
2019-05-17T02:46:25.464Z,84.13
2019-05-17T02:48:55.919Z,86.72
2019-05-17T02:51:26.528Z,91.30
2019-05-17T02:53:56.901Z,84.65
2019-05-17T02:56:27.558Z,88.42
2019-05-17T02:58:57.995Z,96.08
2019-05-17T03:01:28.493Z,97.27
2019-05-17T03:03:58.981Z,108.90
2019-05-17T03:06:32.897Z,106.30
2019-05-17T03:09:03.657Z,105.07
2019-05-17T03:11:34.148Z,88.15
2019-05-17T03:14:04.562Z,86.50
2019-05-17T03:16:36.497Z,84.30
2019-05-17T03:19:06.889Z,89.62
2019-05-17T03:21:37.274Z,109.95
2019-05-17T03:24:07.686Z,102.02
2019-05-17T03:26:38.043Z,97.72
2019-05-17T03:29:08.441Z,107.87
2019-05-17T03:31:44.536Z,96.65
2019-05-17T03:34:16.767Z,106.00
2019-05-17T03:36:46.899Z,107.83
2019-05-17T03:39:16.256Z,91.75
2019-05-17T03:41:46.627Z,108.07
2019-05-17T03:44:17.074Z,108.92
2019-05-17T03:46:47.451Z,107.25
2019-05-17T03:49:18.029Z,105.80
2019-05-17T03:51:48.477Z,106.85
2019-05-17T03:54:22.650Z,110.03
2019-05-17T03:56:55.399Z,111.85
2019-05-17T03:59:27.462Z,117.28
2019-05-17T04:01:57.914Z,133.60
2019-05-17T04:04:28.328Z,132.80
2019-05-17T04:07:03.151Z,151.87
2019-05-17T04:09:32.859Z,268.40
2019-05-17T04:12:04.932Z,294.07
2019-05-17T04:14:35.352Z,212.97
2019-05-17T04:17:05.832Z,185.28
2019-05-17T04:19:36.305Z,196.43
2019-05-17T04:22:06.687Z,226.58
2019-05-17T04:24:37.162Z,250.72
2019-05-17T04:27:07.573Z,262.82
2019-05-17T04:29:42.422Z,185.80
2019-05-17T04:32:12.991Z,218.95
2019-05-17T04:34:43.890Z,235.55
2019-05-17T04:37:14.472Z,198.97
2019-05-17T04:39:44.952Z,212.08
2019-05-17T04:42:15.460Z,262.10
2019-05-17T04:44:45.955Z,246.00
2019-05-17T04:47:16.414Z,150.75
2019-05-17T04:49:47.420Z,176.37
2019-05-17T04:52:17.943Z,127.20
2019-05-17T04:54:48.393Z,133.15
2019-05-17T04:57:18.792Z,124.40
2019-05-17T04:59:49.161Z,123.18
2019-05-17T05:02:23.617Z,131.80
2019-05-17T05:04:53.531Z,119.70
2019-05-17T05:07:24.088Z,138.77
2019-05-17T05:09:54.545Z,132.95
2019-05-17T05:12:26.432Z,114.40
2019-05-17T05:14:56.900Z,86.02
2019-05-17T05:17:27.362Z,114.67
2019-05-17T05:20:02.516Z,104.32
2019-05-17T05:22:33.089Z,99.42
2019-05-17T05:25:04.839Z,106.58
2019-05-17T05:27:35.261Z,92.00
2019-05-17T05:30:07.240Z,99.83
2019-05-17T05:32:37.672Z,85.65
2019-05-17T05:35:08.043Z,90.00
2019-05-17T05:37:38.614Z,99.00
2019-05-17T05:40:12.608Z,86.12
2019-05-17T05:42:42.998Z,103.72
2019-05-17T05:45:14.728Z,103.47
2019-05-17T05:47:45.137Z,100.67
2019-05-17T05:50:17.724Z,92.05
2019-05-17T05:52:48.229Z,93.70
2019-05-17T05:55:18.618Z,88.80
2019-05-17T05:57:49.120Z,75.10
2019-05-17T06:00:21.975Z,68.78
2019-05-17T06:02:52.313Z,114.77
2019-05-17T06:05:22.789Z,81.90
2019-05-17T06:07:53.278Z,64.58
2019-05-17T06:10:23.649Z,76.77
2019-05-17T06:12:55.579Z,61.25
2019-05-17T06:15:26.012Z,61.18
2019-05-17T06:17:56.393Z,76.20
2019-05-17T06:20:28.299Z,81.47
2019-05-17T06:22:58.678Z,58.23
2019-05-17T06:25:29.142Z,66.57
2019-05-17T06:28:01.431Z,82.65
2019-05-17T06:30:32.368Z,41.80
2019-05-17T06:33:02.871Z,35.10
2019-05-17T06:35:33.353Z,39.20
2019-05-17T06:38:04.598Z,39.48
2019-05-17T06:40:34.974Z,36.93
2019-05-17T06:43:05.397Z,34.50
2019-05-17T06:45:35.782Z,36.25
2019-05-17T06:48:06.191Z,40.95
2019-05-17T06:50:36.578Z,52.25
2019-05-17T06:53:06.989Z,35.55
2019-05-17T06:55:37.368Z,32.45
2019-05-17T06:58:07.778Z,34.63
2019-05-17T07:00:40.257Z,38.40
2019-05-17T07:03:10.245Z,29.07
2019-05-17T07:05:42.193Z,25.80
2019-05-17T07:08:12.627Z,26.17
2019-05-17T07:10:43.012Z,35.73
2019-05-17T07:13:14.885Z,29.20
2019-05-17T07:15:47.914Z,49.58
2019-05-17T07:18:19.462Z,25.45
2019-05-17T07:20:50.188Z,22.75
2019-05-17T07:23:20.786Z,17.27
2019-05-17T07:25:51.183Z,22.22
2019-05-17T07:28:21.665Z,27.35
2019-05-17T07:30:52.174Z,23.55
2019-05-17T07:33:22.549Z,20.12
2019-05-17T07:35:52.934Z,27.80
2019-05-17T07:38:23.387Z,34.58
2019-05-17T07:40:53.764Z,27.67
2019-05-17T07:43:24.164Z,18.00
2019-05-17T07:45:54.596Z,22.25
2019-05-17T07:48:25.002Z,15.95
2019-05-17T07:50:55.383Z,15.90
2019-05-17T07:53:25.842Z,17.77
2019-05-17T07:55:56.212Z,26.40
2019-05-17T07:58:26.628Z,15.30
2019-05-17T08:00:57.049Z,16.50
2019-05-17T08:03:29.720Z,15.53
2019-05-17T08:06:00.112Z,16.40
2019-05-17T08:08:31.368Z,16.10
2019-05-17T08:11:02.084Z,17.35
2019-05-17T08:13:33.812Z,19.40
2019-05-17T08:16:04.382Z,18.20
2019-05-17T08:18:34.879Z,13.15
2019-05-17T08:21:05.344Z,24.12
2019-05-17T08:23:40.075Z,15.45
2019-05-17T08:26:10.744Z,26.23
2019-05-17T08:28:41.315Z,20.85
2019-05-17T08:31:11.818Z,9.83
2019-05-17T08:33:43.679Z,8.68
2019-05-17T08:36:13.710Z,16.62
2019-05-17T08:38:44.106Z,35.90
2019-05-17T08:41:14.158Z,20.70
2019-05-17T08:43:47.014Z,22.22
2019-05-17T08:46:16.596Z,11.88
2019-05-17T08:48:49.385Z,8.83
2019-05-17T08:51:19.753Z,10.60
2019-05-17T08:53:50.285Z,27.17
2019-05-17T08:56:20.693Z,32.15
2019-05-17T08:58:51.164Z,29.40
2019-05-17T09:01:21.549Z,11.15
2019-05-17T09:03:52.112Z,13.45
2019-05-17T09:06:24.036Z,27.37
2019-05-17T09:08:54.530Z,8.65
2019-05-17T09:11:24.966Z,16.42
2019-05-17T09:13:58.444Z,19.85
2019-05-17T09:16:27.473Z,26.40
2019-05-17T09:19:00.324Z,16.85
2019-05-17T09:21:31.283Z,21.93
2019-05-17T09:24:02.823Z,18.85
2019-05-17T09:26:33.230Z,14.55
2019-05-17T09:29:05.339Z,17.70
2019-05-17T09:31:35.782Z,10.60
2019-05-17T09:34:06.177Z,20.75
2019-05-17T09:36:36.598Z,20.90
2019-05-17T09:39:09.470Z,10.38
2019-05-17T09:41:40.071Z,12.75
2019-05-17T09:44:15.924Z,13.68
2019-05-17T09:46:42.907Z,23.22
2019-05-17T09:49:13.411Z,27.45
2019-05-17T09:51:43.821Z,15.78
2019-05-17T09:54:14.254Z,13.10
2019-05-17T09:56:44.664Z,23.85
2019-05-17T09:59:15.114Z,4.40
2019-05-17T10:01:45.480Z,5.53
2019-05-17T10:04:15.933Z,7.22
2019-05-17T10:06:46.409Z,14.93
2019-05-17T10:09:19.483Z,11.80
2019-05-17T10:11:49.298Z,8.98
2019-05-17T10:14:27.718Z,7.25
2019-05-17T10:16:51.873Z,9.95
2019-05-17T10:19:23.620Z,12.88
2019-05-17T10:21:54.157Z,14.55
2019-05-17T10:24:35.973Z,13.15
2019-05-17T10:26:56.637Z,13.20
2019-05-17T10:29:27.038Z,16.23
2019-05-17T10:31:59.728Z,9.18
2019-05-17T10:34:29.536Z,32.67
2019-05-17T10:36:59.913Z,9.63
2019-05-17T10:39:30.314Z,6.50
2019-05-17T10:42:00.708Z,9.65
2019-05-17T10:44:43.068Z,8.10
2019-05-17T10:47:03.254Z,15.98
2019-05-17T10:49:33.668Z,7.90
2019-05-17T10:52:05.543Z,19.37
2019-05-17T10:54:35.915Z,6.95
2019-05-17T10:57:06.317Z,8.73
2019-05-17T10:59:36.685Z,7.33
2019-05-17T11:02:07.291Z,7.20
2019-05-17T11:04:40.212Z,32.55
2019-05-17T11:07:10.779Z,11.80
2019-05-17T11:09:41.269Z,10.08
2019-05-17T11:12:11.723Z,11.80
2019-05-17T11:14:50.703Z,13.85
2019-05-17T11:17:14.203Z,11.73
2019-05-17T11:19:46.040Z,14.65
2019-05-17T11:22:19.446Z,7.47
2019-05-17T11:24:49.830Z,11.75
2019-05-17T11:27:20.236Z,6.40
2019-05-17T11:29:50.713Z,8.18
2019-05-17T11:32:21.260Z,10.30
2019-05-17T11:34:51.671Z,10.93
2019-05-17T11:37:23.698Z,10.28
2019-05-17T11:39:54.304Z,10.13
2019-05-17T11:42:24.723Z,8.63
2019-05-17T11:44:55.187Z,10.30
2019-05-17T11:47:27.086Z,10.38
2019-05-17T11:49:57.515Z,15.10
2019-05-17T11:52:27.887Z,8.93
2019-05-17T11:54:59.810Z,7.90
2019-05-17T11:57:30.184Z,10.60
2019-05-17T12:00:00.573Z,9.78
2019-05-17T12:02:30.977Z,9.08
2019-05-17T12:05:02.893Z,43.28
2019-05-17T12:07:33.369Z,14.03
2019-05-17T12:10:07.178Z,13.15
2019-05-17T12:12:37.598Z,8.45
2019-05-17T12:15:09.254Z,14.60
2019-05-17T12:17:39.749Z,8.50
2019-05-17T12:20:10.438Z,9.65
2019-05-17T12:22:40.832Z,18.82
2019-05-17T12:25:14.152Z,11.70
2019-05-17T12:27:44.617Z,7.75
2019-05-17T12:30:15.436Z,9.73
2019-05-17T12:32:47.512Z,16.30
2019-05-17T12:35:19.534Z,10.20
2019-05-17T12:37:49.988Z,11.50
2019-05-17T12:40:20.514Z,9.20
2019-05-17T12:42:51.149Z,6.50
2019-05-17T12:45:22.989Z,6.62
2019-05-17T12:47:53.631Z,8.48
2019-05-17T12:50:24.146Z,13.68
2019-05-17T12:52:54.598Z,13.18
2019-05-17T12:55:25.029Z,7.47
2019-05-17T12:57:56.918Z,9.85
2019-05-17T13:00:27.378Z,6.42
2019-05-17T13:02:57.769Z,7.45
2019-05-17T13:05:28.262Z,6.78
2019-05-17T13:07:58.623Z,6.75
2019-05-17T13:10:29.164Z,11.30
2019-05-17T13:12:59.543Z,21.93
2019-05-17T13:15:29.967Z,11.05
2019-05-17T13:18:01.276Z,40.95
2019-05-17T13:20:31.815Z,14.07
2019-05-17T13:23:02.230Z,11.45
2019-05-17T13:25:34.171Z,8.43
2019-05-17T13:28:04.598Z,7.30
2019-05-17T13:30:36.481Z,7.40
2019-05-17T13:33:06.847Z,9.00
2019-05-17T13:35:37.365Z,10.70
2019-05-17T13:38:07.741Z,7.30
2019-05-17T13:40:39.851Z,26.37
2019-05-17T13:43:10.251Z,17.65
2019-05-17T13:45:43.704Z,10.40
2019-05-17T13:48:12.814Z,8.90
2019-05-17T13:50:43.325Z,7.20
2019-05-17T13:53:14.635Z,8.68
2019-05-17T13:55:45.091Z,7.83
2019-05-17T13:58:15.526Z,7.15
2019-05-17T14:00:45.998Z,9.45
2019-05-17T14:03:16.466Z,6.08
2019-05-17T14:05:46.961Z,12.18
2019-05-17T14:08:18.889Z,13.93
2019-05-17T14:10:49.479Z,13.00
2019-05-17T14:13:19.865Z,13.78
2019-05-17T14:15:50.338Z,8.18
2019-05-17T14:18:20.703Z,9.88
2019-05-17T14:20:51.226Z,7.33
2019-05-17T14:23:21.669Z,7.08
2019-05-17T14:25:52.083Z,11.00
2019-05-17T14:28:22.550Z,13.43
2019-05-17T14:30:53.024Z,9.65
2019-05-17T14:33:23.421Z,9.73
2019-05-17T14:35:53.894Z,7.85
2019-05-17T14:38:24.367Z,16.65
2019-05-17T14:41:10.171Z,10.80
2019-05-17T14:43:26.950Z,8.53
2019-05-17T14:45:57.365Z,10.18
2019-05-17T14:48:29.201Z,17.05
2019-05-17T14:50:59.610Z,5.65
2019-05-17T14:53:30.013Z,24.75
2019-05-17T14:56:01.279Z,13.28
2019-05-17T14:58:31.666Z,8.45
2019-05-17T15:01:02.114Z,11.20
2019-05-17T15:03:32.572Z,13.30
2019-05-17T15:06:03.035Z,14.73
2019-05-17T15:08:33.430Z,10.78
2019-05-17T15:11:03.899Z,11.55
2019-05-17T15:13:34.377Z,7.90
2019-05-17T15:16:05.499Z,6.62
2019-05-17T15:18:35.861Z,7.95
2019-05-17T15:21:07.135Z,6.05
2019-05-17T15:23:37.522Z,6.12
2019-05-17T15:26:07.948Z,6.75
2019-05-17T15:28:38.415Z,11.57
2019-05-17T15:31:08.907Z,8.68
2019-05-17T15:33:39.566Z,5.90
2019-05-17T15:36:10.066Z,7.85
2019-05-17T15:38:41.900Z,15.83
2019-05-17T15:41:12.306Z,9.45
2019-05-17T15:43:44.144Z,9.20
2019-05-17T15:46:14.552Z,11.35
2019-05-17T15:48:44.922Z,9.63
2019-05-17T15:51:15.341Z,9.20
2019-05-17T15:53:45.716Z,8.23
2019-05-17T15:56:16.132Z,8.25
2019-05-17T15:58:46.510Z,12.30
2019-05-17T16:01:16.963Z,10.00
2019-05-17T16:03:47.421Z,14.73
2019-05-17T16:06:17.945Z,10.03
2019-05-17T16:08:48.511Z,10.98
2019-05-17T16:11:18.914Z,13.22
2019-05-17T16:13:49.592Z,8.95
2019-05-17T16:16:21.674Z,7.33
2019-05-17T16:18:52.125Z,7.75
2019-05-17T16:21:24.324Z,9.13
2019-05-17T16:23:54.717Z,17.55
2019-05-17T16:26:25.253Z,6.58
2019-05-17T16:28:55.630Z,8.90
2019-05-17T16:31:26.029Z,12.37
2019-05-17T16:33:56.489Z,8.10
2019-05-17T16:36:27.144Z,10.78
2019-05-17T16:38:57.525Z,8.70
2019-05-17T16:41:29.503Z,14.40
2019-05-17T16:43:59.865Z,8.48
2019-05-17T16:46:30.301Z,8.70
2019-05-17T16:49:00.741Z,17.50
2019-05-17T16:51:31.214Z,8.03
2019-05-17T16:54:01.595Z,16.82
2019-05-17T16:56:33.576Z,12.20
2019-05-17T16:59:05.622Z,9.93
2019-05-17T17:01:36.026Z,7.25
2019-05-17T17:04:06.535Z,10.60
2019-05-17T17:06:37.229Z,20.50
2019-05-17T17:09:09.069Z,9.93
2019-05-17T17:11:39.584Z,18.98
2019-05-17T17:14:09.950Z,11.33
2019-05-17T17:16:41.881Z,8.98
2019-05-17T17:19:12.286Z,8.70
2019-05-17T17:21:42.699Z,16.15
2019-05-17T17:24:13.187Z,7.50
2019-05-17T17:26:43.633Z,11.45
2019-05-17T17:29:14.043Z,12.28
2019-05-17T17:31:44.407Z,6.60
2019-05-17T17:34:14.901Z,5.90
2019-05-17T17:36:45.317Z,10.45
2019-05-17T17:39:15.725Z,10.68
2019-05-17T17:41:46.134Z,6.28
2019-05-17T17:44:19.492Z,9.05
2019-05-17T17:46:49.946Z,15.55
2019-05-17T17:49:20.346Z,13.95
2019-05-17T17:51:52.343Z,11.70
2019-05-17T17:54:22.778Z,12.28
2019-05-17T17:56:54.763Z,14.70
2019-05-17T17:59:25.129Z,6.05
2019-05-17T18:01:55.528Z,6.33
2019-05-17T18:04:26.767Z,38.80
2019-05-17T18:06:57.214Z,22.35
2019-05-17T18:09:27.683Z,12.20
2019-05-17T18:11:58.097Z,6.78
2019-05-17T18:14:29.942Z,30.05
2019-05-17T18:17:00.382Z,6.67
2019-05-17T18:19:30.881Z,7.60
2019-05-17T18:22:02.221Z,8.73
2019-05-17T18:24:32.617Z,13.55
2019-05-17T18:27:03.098Z,8.45
2019-05-17T18:29:35.112Z,6.47
2019-05-17T18:32:07.069Z,8.80
2019-05-17T18:34:37.484Z,11.28
2019-05-17T18:37:09.345Z,11.10
2019-05-17T18:39:39.797Z,8.58
2019-05-17T18:42:10.255Z,9.45
2019-05-17T18:44:40.643Z,7.30
2019-05-17T18:47:11.059Z,6.83
2019-05-17T18:49:42.277Z,18.00
2019-05-17T18:52:12.849Z,8.85
2019-05-17T18:54:43.223Z,18.82
2019-05-17T18:57:13.630Z,7.05
2019-05-17T18:59:44.033Z,10.38
2019-05-17T19:02:14.423Z,12.10
2019-05-17T19:04:46.322Z,13.65
2019-05-17T19:07:16.692Z,9.85
2019-05-17T19:09:47.219Z,6.62
2019-05-17T19:12:17.672Z,5.75
2019-05-17T19:14:48.099Z,8.15
2019-05-17T19:17:18.480Z,13.60
2019-05-17T19:19:48.905Z,7.85
2019-05-17T19:22:19.283Z,7.90
2019-05-17T19:24:49.667Z,9.50
2019-05-17T19:27:20.894Z,9.65
2019-05-17T19:29:51.253Z,9.60
2019-05-17T19:32:21.675Z,7.12
2019-05-17T19:34:52.091Z,15.88
2019-05-17T19:37:22.507Z,11.75
2019-05-17T19:39:52.949Z,9.33
2019-05-17T19:42:23.504Z,10.08
2019-05-17T19:44:59.086Z,7.67
2019-05-17T19:47:26.044Z,8.23
2019-05-17T19:49:56.528Z,9.28
2019-05-17T19:52:27.088Z,23.47
2019-05-17T19:54:57.574Z,10.00
2019-05-17T19:57:31.099Z,14.55
2019-05-17T20:00:01.618Z,11.65
2019-05-17T20:02:32.126Z,17.42
2019-05-17T20:05:02.562Z,7.85
2019-05-17T20:07:37.911Z,7.90
2019-05-17T20:10:08.979Z,11.28
2019-05-17T20:12:39.495Z,10.13
2019-05-17T20:15:17.200Z,8.10
2019-05-17T20:17:43.189Z,8.23
2019-05-17T20:20:14.172Z,11.05
2019-05-17T20:22:44.582Z,11.45
2019-05-17T20:25:17.214Z,11.10
2019-05-17T20:27:47.610Z,9.50
2019-05-17T20:30:19.697Z,8.48
2019-05-17T20:32:50.086Z,16.85
2019-05-17T20:35:20.461Z,10.58
2019-05-17T20:37:50.867Z,9.13
2019-05-17T20:40:21.353Z,11.03
2019-05-17T20:42:51.747Z,9.68
2019-05-17T20:45:32.743Z,13.30
2019-05-17T20:47:55.758Z,8.83
2019-05-17T20:50:26.155Z,11.38
2019-05-17T20:52:56.600Z,10.82
2019-05-17T20:55:27.463Z,15.45
2019-05-17T20:57:57.951Z,14.07
2019-05-17T21:00:29.145Z,17.50
2019-05-17T21:02:59.565Z,18.42
2019-05-17T21:05:29.963Z,23.00
2019-05-17T21:08:00.365Z,20.20
2019-05-17T21:10:30.826Z,17.52
2019-05-17T21:13:02.181Z,21.90
2019-05-17T21:15:45.739Z,19.92
2019-05-17T21:18:04.722Z,25.68
2019-05-17T21:20:35.167Z,21.82
2019-05-17T21:23:05.597Z,26.48
2019-05-17T21:25:37.555Z,20.08
2019-05-17T21:28:07.977Z,24.57
2019-05-17T21:30:38.553Z,18.80
2019-05-17T21:33:09.138Z,20.55
2019-05-17T21:35:39.581Z,23.85
2019-05-17T21:38:09.997Z,28.23
2019-05-17T21:40:40.455Z,25.95
2019-05-17T21:43:10.948Z,20.52
2019-05-17T21:45:43.013Z,21.97
2019-05-17T21:48:14.897Z,22.98
2019-05-17T21:50:45.395Z,23.62
2019-05-17T21:53:17.491Z,20.05
2019-05-17T21:55:47.918Z,23.42
2019-05-17T21:58:20.434Z,23.55
2019-05-17T22:01:14.542Z,20.55
2019-05-17T22:03:45.092Z,24.15
2019-05-17T22:06:15.504Z,21.45
2019-05-17T22:08:46.898Z,24.57
2019-05-17T22:11:18.803Z,22.58
2019-05-17T22:13:49.288Z,22.75
2019-05-17T22:16:21.154Z,22.77
2019-05-17T22:18:51.579Z,22.70
2019-05-17T22:21:21.981Z,21.33
2019-05-17T22:23:53.831Z,23.27
2019-05-17T22:26:24.251Z,24.35
2019-05-17T22:28:54.639Z,26.77
2019-05-17T22:31:25.176Z,25.95
2019-05-17T22:33:55.671Z,23.05
2019-05-17T22:36:26.160Z,27.45
2019-05-17T22:38:58.115Z,27.95
2019-05-17T22:41:28.539Z,27.35
2019-05-17T22:43:58.913Z,28.85
2019-05-17T22:46:36.092Z,26.77
2019-05-17T22:49:01.418Z,27.25
2019-05-17T22:51:31.806Z,28.57
2019-05-17T22:54:02.317Z,27.80
2019-05-17T22:56:34.158Z,33.38
2019-05-17T22:59:04.599Z,30.95
2019-05-17T23:01:35.001Z,33.38
2019-05-17T23:04:05.385Z,35.50
2019-05-17T23:06:35.825Z,29.95
2019-05-17T23:09:06.732Z,35.48
2019-05-17T23:11:37.124Z,37.40
2019-05-17T23:14:07.577Z,33.98
2019-05-17T23:16:50.488Z,37.48
2019-05-17T23:19:13.829Z,35.40
2019-05-17T23:21:44.270Z,35.92
2019-05-17T23:24:16.162Z,33.42
2019-05-17T23:26:46.605Z,35.45
2019-05-17T23:29:17.020Z,33.85
2019-05-17T23:31:48.969Z,36.55
2019-05-17T23:34:19.387Z,35.95
2019-05-17T23:36:49.854Z,38.33
2019-05-17T23:39:20.337Z,33.90
2019-05-17T23:41:50.708Z,35.28
2019-05-17T23:44:21.180Z,32.13
2019-05-17T23:47:06.051Z,34.78
2019-05-17T23:49:23.989Z,34.70
2019-05-17T23:51:54.428Z,35.65
2019-05-17T23:54:26.270Z,37.03
2019-05-17T23:56:56.682Z,42.65
2019-05-17T23:59:27.069Z,40.03
